Warner, Oklahoma
Current Conditions -  °F | °C
As of 8:53 PM on Wednesday 26 Nov 2014 (Local Time) from KMKO Reporting Station
Clear Clear  
Wind Chill: 33°   Ceiling: Unl
Heat Index: 40°   Visibility: 10mi
Dew Point: 26°   Wind: 10mph
Humidity: 58%   Direction: 340°NNW
Pressure: 30.36"   Gusts: NA
Location:  35.49°N, 95.31°W
Report Text: KMKO 270253Z AUTO 34009KT 10SM CLR 04/M03 A3036 RMK AO2 SLP281 T00441033 51033
Loading
Personal Weather Stations






























Interactive Weather Map New forecast layout! Learn more

10-Day Weather Forecast

Advertisements
Track Severe Weather on mobile